Time;durP1;ratioP1;P1;durP2;ratioP2;P2;SDS_P1;SDS_P2;PMS_P1;PMS_P2;Temp;Humidity;BMP_temperature;BMP_pressure;BME280_temperature;BME280_humidity;BME280_pressure;Samples;Min_cycle;Max_cycle;Signal;HPM_P1;HPM_P2
2024/01/08 00:02:15;;;;;;;4.75;4.30;;;;;;;;;;5018969;28;20674;-67
2024/01/08 00:04:41;;;;;;;4.63;4.03;;;;;;;;;;5019144;28;20203;-68
2024/01/08 00:07:08;;;;;;;4.15;3.75;;;;;;;;;;5019699;28;20319;-68
2024/01/08 00:09:34;;;;;;;5.82;2.90;;;;;;;23.33;100.00;56616.03;5016862;28;20206;-67
2024/01/08 00:12:01;;;;;;;6.78;3.92;;;;;;;;;;5018691;28;20212;-66
2024/01/08 00:14:27;;;;;;;3.47;3.17;;;;;;;;;;5017934;28;20203;-67
2024/01/08 00:16:54;;;;;;;2.80;2.45;;;;;;;23.25;100.00;56616.03;5019250;28;20216;-67
2024/01/08 00:19:22;;;;;;;2.80;2.38;;;;;;;44.04;100.00;56616.03;5017851;28;20716;-67
2024/01/08 00:21:49;;;;;;;4.18;2.50;;;;;;;-142.91;100.00;56616.03;5019231;28;20235;-67
2024/01/08 00:24:15;;;;;;;2.75;2.40;;;;;;;;;;5018235;28;20759;-67
2024/01/08 00:26:42;;;;;;;3.55;2.53;;;;;;;;;;5019840;28;20199;-67
2024/01/08 00:29:08;;;;;;;2.30;2.20;;;;;;;-142.91;100.00;56616.03;5018066;28;20603;-68
2024/01/08 00:31:35;;;;;;;2.65;2.15;;;;;;;;;;5019621;28;20584;-67
2024/01/08 00:34:01;;;;;;;3.28;2.75;;;;;;;;;;5019499;28;20203;-68
2024/01/08 00:36:29;;;;;;;3.00;2.17;;;;;;;33.65;100.00;56616.03;5020214;28;20705;-67
2024/01/08 00:38:56;;;;;;;1.90;1.80;;;;;;;;;;5018298;28;20301;-67
2024/01/08 00:41:22;;;;;;;4.68;2.15;;;;;;;;;;5019457;28;20204;-67
2024/01/08 00:43:51;;;;;;;2.35;2.15;;;;;;;;;;5018540;28;20307;-69
2024/01/08 00:46:17;;;;;;;2.10;2.00;;;;;;;;;;5018192;28;20697;-68
2024/01/08 00:48:44;;;;;;;2.80;2.55;;;;;;;-142.91;100.00;56616.03;5016292;28;20199;-66
2024/01/08 00:51:10;;;;;;;3.13;2.78;;;;;;;;;;5017363;28;20239;-68
2024/01/08 00:53:38;;;;;;;2.15;2.05;;;;;;;-142.91;100.00;56616.03;5016646;28;20295;-67
2024/01/08 00:56:05;;;;;;;4.30;2.80;;;;;;;;;;5018490;28;20300;-68
2024/01/08 00:58:31;;;;;;;2.60;2.40;;;;;;;;;;5014183;28;20837;-66
2024/01/08 01:00:57;;;;;;;2.85;2.60;;;;;;;;;;5018230;28;20761;-68
2024/01/08 01:03:25;;;;;;;3.15;2.15;;;;;;;;;;5019009;28;20208;-69
2024/01/08 01:05:51;;;;;;;3.35;3.05;;;;;;;;;;5019127;28;20208;-67
2024/01/08 01:08:17;;;;;;;3.45;3.25;;;;;;;;;;5019375;28;20306;-67
2024/01/08 01:10:45;;;;;;;4.57;3.30;;;;;;;;;;5018508;28;20253;-68
2024/01/08 01:13:12;;;;;;;5.68;3.65;;;;;;;;;;5020156;28;20299;-69
2024/01/08 01:15:38;;;;;;;4.50;3.65;;;;;;;;;;5019732;28;20269;-67
2024/01/08 01:18:05;;;;;;;5.43;4.47;;;;;;;;;;5019260;28;20715;-68
2024/01/08 01:20:32;;;;;;;5.63;4.38;;;;;;;-142.91;100.00;56616.03;5018211;28;20251;-68
2024/01/08 01:22:58;;;;;;;5.78;4.50;;;;;;;;;;5020227;28;20209;-67
2024/01/08 01:25:24;;;;;;;6.53;5.90;;;;;;;;;;5017662;28;20210;-68
2024/01/08 01:27:52;;;;;;;7.38;5.80;;;;;;;;;;5023483;28;20350;-68
2024/01/08 01:30:19;;;;;;;5.75;5.25;;;;;;;;;;5019232;28;20242;-68
2024/01/08 01:32:45;;;;;;;6.75;6.03;;;;;;;;;;5022981;28;20203;-67
2024/01/08 01:35:11;;;;;;;6.22;5.63;;;;;;;;;;5022314;28;20354;-67
2024/01/08 01:37:38;;;;;;;6.65;6.05;;;;;;;;;;5022488;28;20302;-66
2024/01/08 01:40:05;;;;;;;5.72;5.30;;;;;;;;;;5020936;28;20306;-67
2024/01/08 01:42:32;;;;;;;7.05;6.45;;;;;;;-142.91;100.00;56616.03;5021019;28;20216;-67
2024/01/08 01:45:00;;;;;;;6.28;5.72;;;;;;;;;;5022316;28;20302;-67
2024/01/08 01:47:26;;;;;;;6.70;5.82;;;;;;;;;;5023125;28;20296;-68
2024/01/08 01:49:53;;;;;;;7.57;6.25;;;;;;;;;;5022746;28;20322;-67
2024/01/08 01:52:20;;;;;;;6.68;6.03;;;;;;;;;;5021903;28;20214;-67
2024/01/08 01:54:48;;;;;;;6.75;6.13;;;;;;;;;;5022898;28;20295;-67
2024/01/08 01:57:14;;;;;;;7.20;6.50;;;;;;;;;;5022354;28;20768;-67
2024/01/08 01:59:41;;;;;;;6.45;5.88;;;;;;;;;;5022167;28;20798;-67
2024/01/08 02:02:10;;;;;;;8.73;6.72;;;;;;;;;;5022127;28;20324;-67
2024/01/08 02:04:38;;;;;;;6.82;6.22;;;;;;;;;;5022210;28;20211;-67
2024/01/08 02:07:05;;;;;;;6.53;5.93;;;;;;;;;;5021688;28;20632;-67
2024/01/08 02:09:32;;;;;;;6.68;6.20;;;;;;;;;;5021734;28;20283;-67
2024/01/08 02:11:58;;;;;;;7.80;5.93;;;;;;;;;;5021417;28;20298;-66
2024/01/08 02:14:25;;;;;;;6.07;5.65;;;;;;;;;;5021734;28;20223;-68
2024/01/08 02:16:51;;;;;;;5.82;5.25;;;;;;;;;;5022194;28;20211;-67
2024/01/08 02:19:19;;;;;;;6.10;5.40;;;;;;;;;;5021119;28;20698;-66
2024/01/08 02:21:46;;;;;;;5.50;5.03;;;;;;;;;;5021378;28;20220;-68
2024/01/08 02:24:14;;;;;;;5.85;5.35;;;;;;;;;;5021968;28;20211;-68
2024/01/08 02:26:40;;;;;;;5.75;5.25;;;;;;;;;;5022088;28;20313;-68
2024/01/08 02:29:09;;;;;;;5.95;5.45;;;;;;;;;;5021630;28;20745;-68
2024/01/08 02:31:35;;;;;;;5.55;5.03;;;;;;;;;;5022203;28;20199;-68
2024/01/08 02:34:02;;;;;;;6.13;4.70;;;;;;;;;;5021369;28;20294;-66
2024/01/08 02:36:29;;;;;;;5.75;5.25;;;;;;;;;;5021017;28;20265;-68
2024/01/08 02:38:55;;;;;;;5.57;4.90;;;;;;;;;;5021348;28;20287;-68
2024/01/08 02:41:23;;;;;;;5.32;4.35;;;;;;;;;;5021983;28;20322;-68
2024/01/08 02:43:50;;;;;;;4.68;4.28;;;;;;;;;;5020519;28;20203;-66
2024/01/08 02:46:16;;;;;;;4.45;4.15;;;;;;;-142.91;100.00;56616.03;5019426;28;20671;-66
2024/01/08 02:48:42;;;;;;;4.88;3.70;;;;;;;;;;5020512;28;20214;-67
2024/01/08 02:51:09;;;;;;;4.20;3.80;;;;;;;;;;5019939;28;20242;-67
2024/01/08 02:53:35;;;;;;;3.85;3.55;;;;;;;;;;5019382;28;20313;-68
2024/01/08 02:56:02;;;;;;;3.95;3.75;;;;;;;;;;5020735;28;20219;-69
2024/01/08 02:58:29;;;;;;;4.85;3.53;;;;;;;;;;5020810;28;20294;-68
2024/01/08 03:00:56;;;;;;;4.43;3.40;;;;;;;;;;5020587;28;20312;-67
2024/01/08 03:03:22;;;;;;;3.95;3.75;;;;;;;-142.91;100.00;56616.03;5020441;28;20207;-69
2024/01/08 03:05:49;;;;;;;3.50;3.28;;;;;;;;;;5021098;28;20261;-67
2024/01/08 03:08:15;;;;;;;3.50;3.30;;;;;;;;;;5020526;28;20212;-67
2024/01/08 03:10:42;;;;;;;4.25;3.80;;;;;;;;;;5021254;28;20218;-67
2024/01/08 03:13:08;;;;;;;3.72;3.42;;;;;;;;;;5020004;28;20328;-69
2024/01/08 03:15:36;;;;;;;3.92;3.72;;;;;;;;;;5020835;28;20294;-67
2024/01/08 03:18:02;;;;;;;5.00;4.05;;;;;;;;;;5021084;28;20212;-67
2024/01/08 03:20:29;;;;;;;4.35;4.00;;;;;;;;;;5020659;28;20239;-68
2024/01/08 03:22:55;;;;;;;4.60;4.30;;;;;;;;;;5020249;28;20294;-67
2024/01/08 03:25:22;;;;;;;4.85;4.45;;;;;;;;;;5020753;28;20298;-68
2024/01/08 03:27:48;;;;;;;5.10;4.47;;;;;;;;;;5021255;28;20302;-67
2024/01/08 03:30:15;;;;;;;4.30;3.90;;;;;;;;;;5021299;28;20287;-68
2024/01/08 03:32:42;;;;;;;5.05;4.75;;;;;;;;;;5018908;28;20226;-67
2024/01/08 03:35:09;;;;;;;4.40;4.10;;;;;;;;;;5020210;28;20239;-67
2024/01/08 03:37:36;;;;;;;5.53;4.53;;;;;;;;;;5021160;28;20204;-66
2024/01/08 03:40:04;;;;;;;5.15;4.75;;;;;;;;;;5020848;28;20227;-68
2024/01/08 03:42:30;;;;;;;5.28;4.88;;;;;;;;;;5019306;28;20200;-67
2024/01/08 03:44:57;;;;;;;6.07;5.57;;;;;;;;;;5020585;28;20238;-67
2024/01/08 03:47:23;;;;;;;5.53;5.13;;;;;;;;;;5019151;28;20721;-68
2024/01/08 03:49:51;;;;;;;6.15;5.60;;;;;;;-142.91;100.00;56616.03;5020526;28;20241;-67
2024/01/08 03:52:18;;;;;;;6.00;5.50;;;;;;;-142.91;100.00;56616.03;5019162;28;20323;-69
2024/01/08 03:54:44;;;;;;;5.60;5.20;;;;;;;;;;5017637;28;20711;-70
2024/01/08 03:57:11;;;;;;;6.68;6.13;;;;;;;;;;5019941;28;20211;-68
2024/01/08 03:59:37;;;;;;;6.43;5.93;;;;;;;;;;5020821;28;20283;-66
2024/01/08 04:02:03;;;;;;;5.97;5.47;;;;;;;;;;5020955;28;20217;-67
2024/01/08 04:04:30;;;;;;;5.70;5.20;;;;;;;;;;5019838;28;20262;-68
2024/01/08 04:06:58;;;;;;;6.22;5.65;;;;;;;-142.91;100.00;56616.03;5021140;28;20199;-68
2024/01/08 04:09:24;;;;;;;6.75;6.13;;;;;;;;;;5020663;28;20203;-67
2024/01/08 04:11:51;;;;;;;6.53;5.93;;;;;;;;;;5019974;28;20204;-67
2024/01/08 04:14:18;;;;;;;7.38;6.25;;;;;;;;;;5019472;28;20242;-66
2024/01/08 04:16:44;;;;;;;6.45;5.90;;;;;;;;;;5019738;28;20298;-67
2024/01/08 04:19:11;;;;;;;6.22;5.72;;;;;;;;;;5019909;28;21138;-69
2024/01/08 04:21:37;;;;;;;7.70;6.45;;;;;;;;;;5020431;28;20317;-67
2024/01/08 04:24:05;;;;;;;5.90;5.40;;;;;;;;;;5019218;28;20239;-69
2024/01/08 04:26:32;;;;;;;4.95;4.55;;;;;;;-142.91;100.00;56616.03;5020131;28;20621;-69
2024/01/08 04:28:58;;;;;;;5.35;4.90;;;;;;;;;;5019670;28;20302;-68
2024/01/08 04:31:24;;;;;;;4.00;3.70;;;;;;;;;;5019360;28;20289;-68
2024/01/08 04:33:51;;;;;;;4.25;3.95;;;;;;;;;;5019556;28;20262;-67
2024/01/08 04:36:17;;;;;;;2.60;2.45;;;;;;;;;;5020689;28;20675;-67
2024/01/08 04:38:45;;;;;;;1.55;1.33;;;;;;;;;;5019618;28;20207;-67
2024/01/08 04:41:17;;;;;;;1.35;1.33;;;;;;;;;;5019356;28;20224;-70
2024/01/08 04:43:44;;;;;;;1.50;1.40;;;;;;;-142.91;100.00;56616.03;5019614;28;20294;-67
2024/01/08 04:46:10;;;;;;;1.33;1.23;;;;;;;;;;5017527;28;20265;-67
2024/01/08 04:48:37;;;;;;;1.40;1.30;;;;;;;-142.91;100.00;56616.03;5017528;28;20204;-67
2024/01/08 04:51:04;;;;;;;1.55;1.33;;;;;;;25.85;100.00;56616.03;5018880;28;20326;-69
2024/01/08 04:53:33;;;;;;;1.15;1.15;;;;;;;;;;5017274;28;20212;-68
2024/01/08 04:55:59;;;;;;;1.38;1.27;;;;;;;;;;5017613;28;20241;-68
2024/01/08 04:58:27;;;;;;;1.15;1.15;;;;;;;23.26;100.00;56616.03;5017802;28;20203;-68
2024/01/08 05:00:54;;;;;;;1.15;1.08;;;;;;;;;;5020801;28;20311;-68
2024/01/08 05:03:20;;;;;;;1.85;1.75;;;;;;;;;;5023453;28;20706;-68
2024/01/08 05:05:47;;;;;;;1.48;1.38;;;;;;;;;;5023084;28;20204;-68
2024/01/08 05:08:13;;;;;;;1.55;1.45;;;;;;;44.04;100.00;56616.03;5024071;28;20210;-70
2024/01/08 05:10:40;;;;;;;1.80;1.70;;;;;;;;;;5024192;28;20728;-69
2024/01/08 05:13:06;;;;;;;2.60;2.40;;;;;;;;;;5023070;28;20234;-69
2024/01/08 05:15:34;;;;;;;2.78;2.58;;;;;;;;;;5021784;28;20640;-69
2024/01/08 05:18:01;;;;;;;2.45;2.25;;;;;;;;;;5023755;28;20227;-68
2024/01/08 05:20:27;;;;;;;3.05;2.15;;;;;;;-142.91;100.00;56616.03;5022902;28;20678;-67
2024/01/08 05:22:54;;;;;;;2.05;1.85;;;;;;;-142.91;100.00;56616.03;5023546;28;20294;-67
2024/01/08 05:25:20;;;;;;;2.08;1.98;;;;;;;;;;5022499;28;20761;-68
2024/01/08 05:27:47;;;;;;;2.10;2.00;;;;;;;;;;5023605;28;20218;-67
2024/01/08 05:30:13;;;;;;;2.28;2.17;;;;;;;;;;5022830;28;20289;-68
2024/01/08 05:32:41;;;;;;;2.15;2.05;;;;;;;;;;5023034;28;20206;-68
2024/01/08 05:35:08;;;;;;;1.80;1.70;;;;;;;;;;5021817;28;20216;-67
2024/01/08 05:37:34;;;;;;;2.28;1.63;;;;;;;;;;5023564;28;20238;-68
2024/01/08 05:40:01;;;;;;;1.95;1.85;;;;;;;-142.91;100.00;56616.03;5023356;28;20210;-68
2024/01/08 05:42:27;;;;;;;2.08;1.98;;;;;;;;;;5023213;28;20287;-68
2024/01/08 05:44:54;;;;;;;2.63;2.42;;;;;;;;;;5022177;28;20212;-67
2024/01/08 05:47:20;;;;;;;6.07;2.08;;;;;;;;;;5022723;28;20290;-69
2024/01/08 05:49:48;;;;;;;2.65;2.55;;;;;;;;;;5022630;28;20208;-68
2024/01/08 05:52:14;;;;;;;2.53;2.33;;;;;;;;;;5022797;28;20299;-68
2024/01/08 05:54:41;;;;;;;3.30;3.10;;;;;;;;;;5021397;28;20299;-68
2024/01/08 05:57:07;;;;;;;2.47;2.38;;;;;;;;;;5022705;28;20212;-68
2024/01/08 05:59:34;;;;;;;2.65;2.47;;;;;;;;;;5023268;28;20212;-69
2024/01/08 06:02:00;;;;;;;3.90;3.60;;;;;;;;;;5021788;28;20234;-69
2024/01/08 06:04:27;;;;;;;2.88;2.67;;;;;;;23.25;100.00;56616.03;5021879;28;20667;-67
2024/01/08 06:06:56;;;;;;;2.90;2.70;;;;;;;23.41;100.00;56616.03;5022563;28;20299;-69
2024/01/08 06:09:22;;;;;;;2.65;2.45;;;;;;;;;;5022273;28;20651;-70
2024/01/08 06:11:48;;;;;;;2.95;2.75;;;;;;;;;;5021535;28;20200;-68
2024/01/08 06:14:15;;;;;;;2.47;2.30;;;;;;;-142.91;100.00;56616.03;5022610;28;20299;-69
2024/01/08 06:16:41;;;;;;;2.35;2.25;;;;;;;;;;5022977;28;20203;-67
2024/01/08 06:19:08;;;;;;;2.45;2.35;;;;;;;;;;5022264;28;20679;-68
2024/01/08 06:21:34;;;;;;;2.70;2.40;;;;;;;;;;5023133;28;20243;-67
2024/01/08 06:24:02;;;;;;;3.08;2.80;;;;;;;-142.91;100.00;56616.03;5021934;28;20411;-66
2024/01/08 06:26:30;;;;;;;2.58;2.40;;;;;;;-142.91;100.00;56616.03;5021203;28;20302;-69
2024/01/08 06:28:56;;;;;;;2.28;2.17;;;;;;;;;;5021645;28;20204;-67
2024/01/08 06:31:23;;;;;;;2.40;2.30;;;;;;;;;;5022478;28;20303;-68
2024/01/08 06:33:49;;;;;;;3.30;1.90;;;;;;;;;;5020776;28;21564;-69
2024/01/08 06:36:15;;;;;;;2.30;2.20;;;;;;;;;;5021844;28;20318;-70
2024/01/08 06:38:42;;;;;;;2.95;2.05;;;;;;;;;;5021606;28;20649;-69
2024/01/08 06:41:10;;;;;;;2.40;2.25;;;;;;;;;;5021720;28;20289;-69
2024/01/08 06:43:36;;;;;;;2.45;2.25;;;;;;;;;;5021721;28;20206;-68
2024/01/08 06:46:03;;;;;;;2.50;2.30;;;;;;;;;;5021058;28;20229;-69
2024/01/08 06:48:29;;;;;;;2.17;2.08;;;;;;;;;;5020420;28;20203;-69
2024/01/08 06:50:56;;;;;;;1.98;1.88;;;;;;;;;;5021538;28;20224;-68
2024/01/08 06:53:22;;;;;;;3.15;1.92;;;;;;;;;;5020632;28;20200;-69
2024/01/08 06:55:50;;;;;;;2.55;2.45;;;;;;;;;;5019634;28;20211;-68
2024/01/08 06:58:17;;;;;;;2.08;1.98;;;;;;;;;;5017799;28;20212;-67
2024/01/08 07:00:44;;;;;;;2.20;2.10;;;;;;;;;;5019043;28;20229;-69
2024/01/08 07:03:10;;;;;;;3.35;3.15;;;;;;;;;;5019495;28;20689;-69
2024/01/08 07:05:37;;;;;;;2.63;2.42;;;;;;;;;;5019654;28;20204;-71
2024/01/08 07:08:04;;;;;;;3.08;2.22;;;;;;;-142.91;100.00;56616.03;5020969;28;20291;-68
2024/01/08 07:10:33;;;;;;;2.22;2.00;;;;;;;;;;5019282;28;20295;-69
2024/01/08 07:12:59;;;;;;;2.63;2.42;;;;;;;;;;5021385;28;20697;-69
2024/01/08 07:15:40;;;;;;;3.90;2.45;;;;;;;23.25;100.00;56616.03;5021814;28;20290;-67
2024/01/08 07:18:09;;;;;;;5.40;2.40;;;;;;;;;;5019910;28;20299;-68
2024/01/08 07:20:36;;;;;;;2.25;2.15;;;;;;;;;;5020128;28;20963;-69
2024/01/08 07:23:03;;;;;;;6.45;2.50;;;;;;;23.25;100.00;56616.03;5020980;28;20208;-67
2024/01/08 07:25:30;;;;;;;3.40;2.63;;;;;;;;;;5020772;28;20275;-68
2024/01/08 07:27:56;;;;;;;4.20;3.30;;;;;;;;;;5021768;28;20295;-68
2024/01/08 07:30:23;;;;;;;3.60;3.40;;;;;;;;;;5020462;28;20648;-69
2024/01/08 07:32:50;;;;;;;2.83;2.63;;;;;;;;;;5020916;28;20200;-69
2024/01/08 07:35:17;;;;;;;3.35;3.15;;;;;;;;;;5019583;28;20214;-69
2024/01/08 07:37:43;;;;;;;3.28;2.40;;;;;;;;;;5021535;28;20203;-67
2024/01/08 07:40:10;;;;;;;2.70;2.60;;;;;;;;;;5020098;28;21314;-70
2024/01/08 07:42:36;;;;;;;2.63;2.50;;;;;;;;;;5020827;28;20314;-68
2024/01/08 07:45:03;;;;;;;3.17;2.40;;;;;;;;;;5020416;28;20208;-68
2024/01/08 07:47:29;;;;;;;3.25;3.05;;;;;;;;;;5020959;28;20206;-68
2024/01/08 07:49:57;;;;;;;3.58;3.28;;;;;;;;;;5019616;28;20355;-69
2024/01/08 07:52:23;;;;;;;3.13;2.88;;;;;;;;;;5020991;28;20298;-69
2024/01/08 07:54:50;;;;;;;2.97;2.35;;;;;;;;;;5020597;28;20210;-67
2024/01/08 07:57:16;;;;;;;2.90;2.70;;;;;;;;;;5020927;28;20262;-69
2024/01/08 07:59:43;;;;;;;2.92;2.53;;;;;;;23.41;100.00;56616.03;5020507;28;20534;-68
2024/01/08 08:02:09;;;;;;;3.17;2.80;;;;;;;;;;5020377;28;20240;-68
2024/01/08 08:04:36;;;;;;;2.75;2.55;;;;;;;-142.91;100.00;56616.03;5019367;28;20824;-70
2024/01/08 08:07:04;;;;;;;2.45;2.35;;;;;;;-142.91;100.00;56616.03;5020553;28;20203;-69
2024/01/08 08:09:30;;;;;;;2.55;2.40;;;;;;;;;;5020456;28;20294;-69
2024/01/08 08:11:57;;;;;;;2.90;2.70;;;;;;;;;;5018255;28;20686;-69
2024/01/08 08:14:25;;;;;;;3.88;2.25;;;;;;;;;;5020921;28;20215;-68
2024/01/08 08:16:51;;;;;;;2.28;2.17;;;;;;;;;;5019813;28;20246;-68
2024/01/08 08:19:18;;;;;;;3.50;2.55;;;;;;;;;;5020569;28;20210;-68
2024/01/08 08:21:44;;;;;;;2.38;2.28;;;;;;;;;;5019400;28;20327;-68
2024/01/08 08:24:12;;;;;;;2.92;2.50;;;;;;;;;;5019793;28;20294;-68
2024/01/08 08:26:38;;;;;;;17.30;3.47;;;;;;;;;;5020222;28;20218;-67
2024/01/08 08:29:05;;;;;;;4.68;2.90;;;;;;;;;;5020079;28;20674;-69
2024/01/08 08:31:31;;;;;;;2.95;1.98;;;;;;;-142.91;100.00;56616.03;5019666;28;20203;-71
2024/01/08 08:33:58;;;;;;;1.98;1.88;;;;;;;;;;5020116;28;20302;-68
2024/01/08 08:36:24;;;;;;;1.95;1.85;;;;;;;;;;5022058;28;20615;-68
2024/01/08 08:38:50;;;;;;;2.17;2.08;;;;;;;;;;5024370;28;20294;-68
2024/01/08 08:41:19;;;;;;;1.73;1.63;;;;;;;;;;5022948;28;20314;-69
2024/01/08 08:43:45;;;;;;;1.75;1.65;;;;;;;;;;5023192;28;20205;-69
2024/01/08 08:46:12;;;;;;;2.10;2.00;;;;;;;;;;5022392;28;21274;-73
2024/01/08 08:48:39;;;;;;;1.95;1.80;;;;;;;;;;5021584;28;20219;-70
2024/01/08 08:51:06;;;;;;;3.72;2.97;;;;;;;-142.91;100.00;56616.03;5021172;28;20840;-70
2024/01/08 08:53:32;;;;;;;2.47;2.08;;;;;;;;;;5022357;28;20199;-66
2024/01/08 08:55:58;;;;;;;4.15;2.80;;;;;;;;;;5022689;28;20212;-69
2024/01/08 08:58:28;;;;;;;1.98;1.88;;;;;;;;;;5021535;28;20218;-70
2024/01/08 09:00:54;;;;;;;2.70;2.50;;;;;;;;;;5021799;28;20227;-70
2024/01/08 09:03:21;;;;;;;4.97;2.53;;;;;;;;;;5022131;28;20314;-70
2024/01/08 09:05:47;;;;;;;9.88;3.92;;;;;;;;;;5023696;28;20211;-70
2024/01/08 09:08:14;;;;;;;2.55;2.40;;;;;;;-142.91;100.00;56616.03;5023199;28;20657;-68
2024/01/08 09:10:40;;;;;;;3.70;3.40;;;;;;;;;;5022088;28;20306;-69
2024/01/08 09:13:07;;;;;;;2.15;1.92;;;;;;;;;;5022594;28;20291;-69
2024/01/08 09:15:34;;;;;;;3.38;2.58;;;;;;;;;;5023726;28;21206;-70
2024/01/08 09:18:01;;;;;;;3.55;2.33;;;;;;;;;;5023770;28;20298;-69
2024/01/08 09:20:27;;;;;;;2.30;2.20;;;;;;;;;;5022011;28;20202;-71
2024/01/08 09:22:54;;;;;;;2.10;1.90;;;;;;;;;;5023760;28;20255;-68
2024/01/08 09:25:20;;;;;;;2.00;1.90;;;;;;;;;;5023215;28;20211;-71
2024/01/08 09:27:47;;;;;;;1.90;1.80;;;;;;;;;;5023600;28;20290;-66
2024/01/08 09:30:13;;;;;;;2.22;2.03;;;;;;;-142.91;100.00;56616.03;5022341;28;20211;-69
2024/01/08 09:32:41;;;;;;;2.00;1.90;;;;;;;;;;5022066;28;20199;-67
2024/01/08 09:35:08;;;;;;;1.95;1.85;;;;;;;-142.91;100.00;56616.03;5022271;28;20226;-68
2024/01/08 09:37:34;;;;;;;2.15;2.00;;;;;;;-142.91;100.00;56616.03;5021745;28;20688;-68
2024/01/08 09:40:01;;;;;;;2.05;1.95;;;;;;;;;;5023590;28;20208;-69
2024/01/08 09:42:28;;;;;;;2.00;1.90;;;;;;;;;;5022082;28;20224;-69
2024/01/08 09:44:55;;;;;;;3.85;2.42;;;;;;;;;;5022878;28;20734;-70
2024/01/08 09:47:21;;;;;;;6.53;3.03;;;;;;;;;;5022446;28;20207;-67
2024/01/08 09:49:49;;;;;;;1.90;1.80;;;;;;;;;;5021863;28;20282;-67
2024/01/08 09:52:15;;;;;;;3.05;2.38;;;;;;;;;;5023070;28;20290;-68
2024/01/08 09:54:42;;;;;;;6.40;1.92;;;;;;;;;;5022747;28;20287;-67
2024/01/08 09:57:08;;;;;;;2.88;2.67;;;;;;;;;;5023021;28;20775;-70
2024/01/08 09:59:35;;;;;;;2.50;2.30;;;;;;;;;;5022565;28;20654;-68
2024/01/08 10:02:02;;;;;;;2.13;2.00;;;;;;;;;;5022480;28;20807;-67
2024/01/08 10:04:29;;;;;;;2.10;2.00;;;;;;;;;;5022153;28;20206;-69
2024/01/08 10:07:05;;;;;;;1.98;1.88;;;;;;;;;;5022058;28;20722;-68
2024/01/08 10:09:31;;;;;;;1.95;1.85;;;;;;;;;;5022487;28;20601;-69
2024/01/08 10:11:58;;;;;;;2.38;2.17;;;;;;;;;;5022090;28;20210;-69
2024/01/08 10:14:25;;;;;;;2.00;1.90;;;;;;;-142.91;100.00;56616.03;5021369;28;20863;-69
2024/01/08 10:16:51;;;;;;;1.90;1.80;;;;;;;;;;5021938;28;20214;-66
2024/01/08 10:19:22;;;;;;;2.00;1.90;;;;;;;-142.91;100.00;56616.03;5021960;28;20291;-68
2024/01/08 10:22:01;;;;;;;3.60;2.45;;;;;;;;;;5021982;28;20235;-70
2024/01/08 10:24:29;;;;;;;2.08;1.98;;;;;;;;;;5021787;28;20703;-68
2024/01/08 10:26:56;;;;;;;2.40;2.20;;;;;;;;;;5022376;28;20744;-67
2024/01/08 10:29:22;;;;;;;1.88;1.77;;;;;;;;;;5021536;28;20199;-69
2024/01/08 10:31:48;;;;;;;2.28;2.17;;;;;;;;;;5020976;28;20212;-68
2024/01/08 10:34:15;;;;;;;3.72;2.03;;;;;;;23.41;100.00;56616.03;5021880;28;20594;-68
2024/01/08 10:36:42;;;;;;;2.22;1.73;;;;;;;;;;5021786;28;20218;-71
2024/01/08 10:39:09;;;;;;;2.40;2.20;;;;;;;;;;5021671;28;20273;-67
2024/01/08 10:41:37;;;;;;;2.58;2.17;;;;;;;;;;5020740;28;20208;-68
2024/01/08 10:44:04;;;;;;;6.78;2.58;;;;;;;;;;5021933;28;20299;-68
2024/01/08 10:46:35;;;;;;;1.83;1.73;;;;;;;;;;5021061;28;20200;-69
2024/01/08 10:49:02;;;;;;;4.85;2.42;;;;;;;-142.91;100.00;56616.03;5020230;28;20511;-69
2024/01/08 10:51:29;;;;;;;2.10;1.90;;;;;;;;;;5020031;28;20235;-68
2024/01/08 10:53:57;;;;;;;2.90;2.70;;;;;;;;;;5009480;28;20204;-68
2024/01/08 10:56:25;;;;;;;2.95;2.75;;;;;;;;;;5019646;28;20199;-68
2024/01/08 10:58:59;;;;;;;2.22;2.13;;;;;;;;;;5019719;28;20937;-67
2024/01/08 11:01:29;;;;;;;3.75;2.45;;;;;;;;;;5019904;28;20690;-69
2024/01/08 11:03:56;;;;;;;1.88;1.77;;;;;;;-142.91;100.00;56616.03;5021373;28;20242;-70
2024/01/08 11:06:23;;;;;;;2.47;2.28;;;;;;;;;;5020564;28;20200;-68
2024/01/08 11:08:50;;;;;;;2.47;2.33;;;;;;;;;;5021999;28;20208;-68
2024/01/08 11:11:18;;;;;;;2.00;1.80;;;;;;;;;;5021387;28;20283;-70
2024/01/08 11:13:44;;;;;;;2.13;2.03;;;;;;;;;;5021382;28;20204;-70
2024/01/08 11:16:14;;;;;;;2.35;2.15;;;;;;;;;;5019502;28;20699;-68
2024/01/08 11:18:40;;;;;;;2.25;2.05;;;;;;;;;;5015197;28;20927;-67
2024/01/08 11:21:07;;;;;;;2.63;2.17;;;;;;;;;;5020403;28;20308;-68
2024/01/08 11:23:35;;;;;;;2.58;2.28;;;;;;;;;;5020962;28;20228;-67
2024/01/08 11:26:02;;;;;;;2.70;2.30;;;;;;;;;;5020495;28;20294;-70
2024/01/08 11:28:29;;;;;;;2.55;2.45;;;;;;;;;;5020311;28;20725;-68
2024/01/08 11:31:06;;;;;;;2.83;2.63;;;;;;;;;;5019686;28;20204;-68
2024/01/08 11:33:38;;;;;;;2.60;2.33;;;;;;;;;;5019670;28;20284;-69
2024/01/08 11:36:15;;;;;;;2.30;2.20;;;;;;;64.84;90.96;76964.44;5021002;28;20773;-67
2024/01/08 11:38:48;;;;;;;3.05;2.60;;;;;;;;;;5020218;28;20222;-70
2024/01/08 11:41:14;;;;;;;5.10;2.70;;;;;;;;;;5020143;28;20302;-68
2024/01/08 11:43:41;;;;;;;2.45;2.30;;;;;;;;;;5019728;28;20255;-66
2024/01/08 11:46:09;;;;;;;2.22;2.10;;;;;;;-142.91;100.00;56616.03;5021075;28;20678;-69
2024/01/08 11:48:37;;;;;;;2.65;2.40;;;;;;;;;;5021214;28;20677;-69
2024/01/08 11:51:03;;;;;;;2.15;2.05;;;;;;;;;;5019584;28;20245;-68
2024/01/08 11:53:31;;;;;;;2.70;2.45;;;;;;;;;;5020051;28;20749;-69
2024/01/08 11:55:59;;;;;;;2.30;1.92;;;;;;;-142.91;100.00;56616.03;5019927;28;20302;-67
2024/01/08 11:58:25;;;;;;;2.65;2.45;;;;;;;;;;5020920;28;20203;-68
2024/01/08 12:00:52;;;;;;;3.00;2.70;;;;;;;;;;5019591;28;20314;-68
2024/01/08 12:03:23;;;;;;;2.72;2.53;;;;;;;;;;5019777;28;20334;-70
2024/01/08 12:06:02;;;;;;;2.63;2.15;;;;;;;;;;5020651;28;20219;-69
2024/01/08 12:08:30;;;;;;;2.10;1.70;;;;;;;-142.91;100.00;56616.03;5018350;28;20723;-68
2024/01/08 12:10:58;;;;;;;2.00;1.90;;;;;;;;;;5019369;28;20295;-69
2024/01/08 12:13:25;;;;;;;2.00;1.90;;;;;;;;;;5020963;28;20199;-69
2024/01/08 12:15:52;;;;;;;2.70;2.35;;;;;;;;;;5020180;28;20322;-66
2024/01/08 12:18:18;;;;;;;2.85;2.65;;;;;;;;;;5019944;28;20581;-67
2024/01/08 12:20:45;;;;;;;2.10;2.00;;;;;;;-142.91;100.00;56616.03;5019762;28;20539;-68
2024/01/08 12:23:13;;;;;;;3.25;2.50;;;;;;;23.41;100.00;56616.03;5020616;28;20321;-68
2024/01/08 12:25:39;;;;;;;2.70;2.50;;;;;;;;;;5019540;28;20209;-69
2024/01/08 12:28:06;;;;;;;2.88;2.67;;;;;;;;;;5020649;28;20710;-68
2024/01/08 12:30:32;;;;;;;3.03;2.75;;;;;;;;;;5018475;28;20323;-68
2024/01/08 12:32:59;;;;;;;2.92;2.72;;;;;;;-142.91;100.00;56616.03;5020288;28;20229;-67
2024/01/08 12:35:25;;;;;;;3.72;3.38;;;;;;;;;;5019036;28;20210;-68
2024/01/08 12:37:53;;;;;;;3.95;3.65;;;;;;;;;;5020105;28;20214;-68
2024/01/08 12:40:21;;;;;;;4.13;3.35;;;;;;;;;;5019044;28;20693;-68
2024/01/08 12:42:48;;;;;;;2.80;2.60;;;;;;;;;;5019712;28;20712;-68
2024/01/08 12:45:16;;;;;;;3.15;2.95;;;;;;;23.41;100.00;56616.03;5019769;28;20258;-68
2024/01/08 12:47:42;;;;;;;2.97;2.78;;;;;;;;;;5017033;28;20204;-68
2024/01/08 12:50:09;;;;;;;3.20;2.90;;;;;;;-142.91;100.00;56616.03;5018356;28;20330;-68
2024/01/08 12:52:36;;;;;;;3.10;2.90;;;;;;;;;;5017589;28;20887;-69
2024/01/08 12:55:03;;;;;;;2.55;2.35;;;;;;;;;;5018453;28;20214;-70
2024/01/08 12:57:31;;;;;;;2.65;2.45;;;;;;;23.41;100.00;56616.03;5017348;28;20318;-69
2024/01/08 12:59:57;;;;;;;2.78;2.53;;;;;;;;;;5017886;28;20200;-66
2024/01/08 13:02:25;;;;;;;2.78;2.58;;;;;;;;;;5018187;28;20208;-69
2024/01/08 13:04:52;;;;;;;2.97;2.78;;;;;;;;;;5019175;28;20204;-69
2024/01/08 13:07:18;;;;;;;2.42;2.17;;;;;;;;;;5018637;28;20763;-67
2024/01/08 13:09:45;;;;;;;2.60;2.40;;;;;;;;;;5019323;28;20220;-68
2024/01/08 13:12:12;;;;;;;3.55;3.25;;;;;;;-142.91;100.00;56616.03;5013918;28;20290;-68
2024/01/08 13:14:39;;;;;;;3.13;2.83;;;;;;;;;;5019591;28;20366;-69
2024/01/08 13:17:06;;;;;;;2.80;2.60;;;;;;;;;;5019312;28;20299;-67
2024/01/08 13:19:32;;;;;;;2.75;2.55;;;;;;;;;;5019640;28;20299;-68
2024/01/08 13:21:58;;;;;;;3.35;2.88;;;;;;;23.33;100.00;56616.03;5020065;28;20219;-69
2024/01/08 13:24:26;;;;;;;3.30;3.00;;;;;;;;;;5023128;28;20224;-69
2024/01/08 13:26:52;;;;;;;3.22;3.03;;;;;;;;;;5023405;28;20215;-67
2024/01/08 13:29:20;;;;;;;3.80;3.50;;;;;;;;;;5023307;28;20207;-68
2024/01/08 13:31:48;;;;;;;3.55;3.25;;;;;;;;;;5023209;28;20207;-68
2024/01/08 13:34:15;;;;;;;2.78;2.60;;;;;;;23.41;100.00;56616.03;5016497;28;20338;-67
2024/01/08 13:36:42;;;;;;;3.25;3.05;;;;;;;;;;5020952;28;20207;-67
2024/01/08 13:39:09;;;;;;;2.97;2.78;;;;;;;;;;5023571;28;21541;-67
2024/01/08 13:41:37;;;;;;;2.67;2.55;;;;;;;;;;5022712;28;20807;-69
2024/01/08 13:44:04;;;;;;;3.00;2.80;;;;;;;;;;5016664;28;20239;-67
2024/01/08 13:46:31;;;;;;;2.58;2.42;;;;;;;;;;5020568;28;21657;-68
2024/01/08 13:48:58;;;;;;;3.00;2.80;;;;;;;;;;5023015;28;20203;-66
2024/01/08 13:51:25;;;;;;;3.67;3.38;;;;;;;;;;5022323;28;20343;-70
2024/01/08 13:53:53;;;;;;;3.38;3.17;;;;;;;;;;5023295;28;20204;-69
2024/01/08 13:56:20;;;;;;;3.17;2.92;;;;;;;;;;5013139;28;20613;-69